createdAt,value
2016-09-23T00:00:00.069Z,46.88
2016-09-23T00:00:32.417Z,47.17
2016-09-23T00:01:04.740Z,46.98
2016-09-23T00:01:37.057Z,47.08
2016-09-23T00:02:09.390Z,46.98
2016-09-23T00:02:42.635Z,46.88
2016-09-23T00:03:14.961Z,46.98
2016-09-23T00:03:47.287Z,46.98
2016-09-23T00:04:19.596Z,46.88
2016-09-23T00:04:51.905Z,47.08
2016-09-23T00:05:24.226Z,46.98
2016-09-23T00:05:56.545Z,46.98
2016-09-23T00:06:29.096Z,47.08
2016-09-23T00:07:02.461Z,46.98
2016-09-23T00:07:35.849Z,47.08
2016-09-23T00:08:08.956Z,46.98
2016-09-23T00:08:41.287Z,46.98
2016-09-23T00:09:13.619Z,46.98
2016-09-23T00:09:45.945Z,47.08
2016-09-23T00:10:18.260Z,47.08
2016-09-23T00:10:50.562Z,47.08
2016-09-23T00:11:22.885Z,47.08
2016-09-23T00:11:55.215Z,46.98
2016-09-23T00:12:27.556Z,47.08
2016-09-23T00:12:59.883Z,46.98
2016-09-23T00:13:32.206Z,47.08
2016-09-23T00:14:04.529Z,47.08
2016-09-23T00:14:36.857Z,46.98
2016-09-23T00:15:09.183Z,47.08
2016-09-23T00:15:41.514Z,46.98
2016-09-23T00:16:13.857Z,47.17
2016-09-23T00:16:46.189Z,47.08
2016-09-23T00:17:18.516Z,47.08
2016-09-23T00:17:50.846Z,46.88
2016-09-23T00:18:23.179Z,46.98
2016-09-23T00:18:55.497Z,46.88
2016-09-23T00:19:27.812Z,47.08
2016-09-23T00:20:00.149Z,47.08
2016-09-23T00:20:32.495Z,47.08
2016-09-23T00:21:04.818Z,46.98
2016-09-23T00:21:37.145Z,46.88
2016-09-23T00:22:09.467Z,47.17
2016-09-23T00:22:41.787Z,46.88
2016-09-23T00:23:14.104Z,46.98
2016-09-23T00:23:46.422Z,46.98
2016-09-23T00:24:18.746Z,46.88
2016-09-23T00:24:51.072Z,47.17
2016-09-23T00:25:23.396Z,47.27
2016-09-23T00:25:55.728Z,47.27
2016-09-23T00:26:28.045Z,47.17
2016-09-23T00:27:00.365Z,47.17
2016-09-23T00:27:32.681Z,47.27
2016-09-23T00:28:05.027Z,47.17
2016-09-23T00:28:37.341Z,47.27
2016-09-23T00:29:09.673Z,47.17
2016-09-23T00:29:42.001Z,46.69
2016-09-23T00:30:14.333Z,47.17
2016-09-23T00:30:46.666Z,47.08
2016-09-23T00:31:18.989Z,47.08
2016-09-23T00:31:51.289Z,46.88
2016-09-23T00:32:23.618Z,46.98
2016-09-23T00:32:55.948Z,47.08
2016-09-23T00:33:28.261Z,47.08
2016-09-23T00:34:00.594Z,47.36
2016-09-23T00:34:32.935Z,47.08
2016-09-23T00:35:05.263Z,47.27
2016-09-23T00:35:37.603Z,47.17
2016-09-23T00:36:09.955Z,47.08
2016-09-23T00:36:42.278Z,46.98
2016-09-23T00:37:14.595Z,47.27
2016-09-23T00:37:46.932Z,47.08
2016-09-23T00:38:19.233Z,47.08
2016-09-23T00:38:51.562Z,47.17
2016-09-23T00:39:23.890Z,47.08
2016-09-23T00:39:56.225Z,47.17
2016-09-23T00:40:28.554Z,47.17
2016-09-23T00:41:00.877Z,47.36
2016-09-23T00:41:33.235Z,47.08
2016-09-23T00:42:05.574Z,47.36
2016-09-23T00:42:37.901Z,47.17
2016-09-23T00:43:10.222Z,47.27
2016-09-23T00:43:42.553Z,47.27
2016-09-23T00:44:14.894Z,47.36
2016-09-23T00:44:47.234Z,47.27
2016-09-23T00:45:19.553Z,47.27
2016-09-23T00:45:51.920Z,47.17
2016-09-23T00:46:24.264Z,47.17
2016-09-23T00:46:56.588Z,47.36
2016-09-23T00:47:28.926Z,47.27
2016-09-23T00:48:01.266Z,47.27
2016-09-23T00:48:33.605Z,47.17
2016-09-23T00:49:05.918Z,47.17
2016-09-23T00:49:38.247Z,47.27
2016-09-23T00:50:10.566Z,47.08
2016-09-23T00:50:42.888Z,47.17
2016-09-23T00:51:15.194Z,47.36
2016-09-23T00:51:47.570Z,47.36
2016-09-23T00:52:19.905Z,47.27
2016-09-23T00:52:52.226Z,47.27
2016-09-23T00:53:24.555Z,47.17
2016-09-23T00:53:56.889Z,47.17
2016-09-23T00:54:29.228Z,47.27
2016-09-23T00:55:01.543Z,47.36
2016-09-23T00:55:33.870Z,47.17
2016-09-23T00:56:06.184Z,47.08
2016-09-23T00:56:38.515Z,47.08
2016-09-23T00:57:10.838Z,47.17
2016-09-23T00:57:43.170Z,47.17
2016-09-23T00:58:15.510Z,47.27
2016-09-23T00:58:47.830Z,47.27
2016-09-23T00:59:20.158Z,47.17
2016-09-23T00:59:52.490Z,47.17
2016-09-23T01:00:24.807Z,47.27
2016-09-23T01:00:57.134Z,47.27
2016-09-23T01:01:29.456Z,47.27
2016-09-23T01:02:01.789Z,47.27
2016-09-23T01:02:34.110Z,47.36
2016-09-23T01:03:06.431Z,47.34
2016-09-23T01:03:38.747Z,47.36
2016-09-23T01:04:11.068Z,47.17
2016-09-23T01:04:43.390Z,47.15
2016-09-23T01:05:15.705Z,47.36
2016-09-23T01:05:48.025Z,47.44
2016-09-23T01:06:20.354Z,47.46
2016-09-23T01:06:52.681Z,47.46
2016-09-23T01:07:25.006Z,47.46
2016-09-23T01:07:57.340Z,47.27
2016-09-23T01:08:29.669Z,47.36
2016-09-23T01:09:02.031Z,47.27
2016-09-23T01:09:34.358Z,47.27
2016-09-23T01:10:06.687Z,47.08
2016-09-23T01:10:39.012Z,47.34
2016-09-23T01:11:11.326Z,47.36
2016-09-23T01:11:43.650Z,47.36
2016-09-23T01:12:15.972Z,47.17
2016-09-23T01:12:48.313Z,47.36
2016-09-23T01:13:20.652Z,47.46
2016-09-23T01:13:52.983Z,47.36
2016-09-23T01:14:25.309Z,47.27
2016-09-23T01:14:57.638Z,47.17
2016-09-23T01:15:29.966Z,47.17
2016-09-23T01:16:02.294Z,47.27
2016-09-23T01:16:34.618Z,47.27
2016-09-23T01:17:06.944Z,47.46
2016-09-23T01:17:39.278Z,47.27
2016-09-23T01:18:11.599Z,47.27
2016-09-23T01:18:43.906Z,47.44
2016-09-23T01:19:16.227Z,47.27
2016-09-23T01:19:48.561Z,47.34
2016-09-23T01:20:20.887Z,47.27
2016-09-23T01:20:53.208Z,47.34
2016-09-23T01:21:25.537Z,47.44
2016-09-23T01:21:57.859Z,47.36
2016-09-23T01:22:30.197Z,47.36
2016-09-23T01:23:02.511Z,47.24
2016-09-23T01:23:34.841Z,47.27
2016-09-23T01:24:07.174Z,47.34
2016-09-23T01:24:39.492Z,47.24
2016-09-23T01:25:11.822Z,47.44
2016-09-23T01:25:44.144Z,47.44
2016-09-23T01:26:16.467Z,47.27
2016-09-23T01:26:48.800Z,47.34
2016-09-23T01:27:21.130Z,47.44
2016-09-23T01:27:53.466Z,47.44
2016-09-23T01:28:25.834Z,47.34
2016-09-23T01:28:58.151Z,47.34
2016-09-23T01:29:30.474Z,47.44
2016-09-23T01:30:02.809Z,47.34
2016-09-23T01:30:35.133Z,47.24
2016-09-23T01:31:07.465Z,47.53
2016-09-23T01:31:39.798Z,47.44
2016-09-23T01:32:12.109Z,47.44
2016-09-23T01:32:44.415Z,47.53
2016-09-23T01:33:16.731Z,47.53
2016-09-23T01:33:49.038Z,47.53
2016-09-23T01:34:21.350Z,47.53
2016-09-23T01:34:53.678Z,47.44
2016-09-23T01:35:26.004Z,47.44
2016-09-23T01:35:58.326Z,47.44
2016-09-23T01:36:30.645Z,47.44
2016-09-23T01:37:02.959Z,47.34
2016-09-23T01:37:35.274Z,47.44
2016-09-23T01:38:07.624Z,47.53
2016-09-23T01:38:39.961Z,47.44
2016-09-23T01:39:12.281Z,47.63
2016-09-23T01:39:44.591Z,47.63
2016-09-23T01:40:16.920Z,47.53
2016-09-23T01:40:49.258Z,47.44
2016-09-23T01:41:21.571Z,47.63
2016-09-23T01:41:53.899Z,47.53
2016-09-23T01:42:26.228Z,47.53
2016-09-23T01:42:58.545Z,47.53
2016-09-23T01:43:30.899Z,47.53
2016-09-23T01:44:04.154Z,47.44
2016-09-23T01:44:36.485Z,47.53
2016-09-23T01:45:08.805Z,47.63
2016-09-23T01:45:41.141Z,47.44
2016-09-23T01:46:13.455Z,47.63
2016-09-23T01:46:45.772Z,47.53
2016-09-23T01:47:18.116Z,47.53
2016-09-23T01:47:50.453Z,47.34
2016-09-23T01:48:22.799Z,47.44
2016-09-23T01:48:55.125Z,47.63
2016-09-23T01:49:27.451Z,47.44
2016-09-23T01:49:59.787Z,47.53
2016-09-23T01:50:32.122Z,47.53
2016-09-23T01:51:04.441Z,47.53
2016-09-23T01:51:36.766Z,47.53
2016-09-23T01:52:09.101Z,47.44
2016-09-23T01:52:41.424Z,47.34
2016-09-23T01:53:13.751Z,47.53
2016-09-23T01:53:46.079Z,47.44
2016-09-23T01:54:18.388Z,47.53
2016-09-23T01:54:50.710Z,47.63
2016-09-23T01:55:23.038Z,47.44
2016-09-23T01:55:55.379Z,47.53
2016-09-23T01:56:27.723Z,47.53
2016-09-23T01:57:00.049Z,47.53
2016-09-23T01:57:32.388Z,47.44
2016-09-23T01:58:04.703Z,47.44
2016-09-23T01:58:37.031Z,47.53
2016-09-23T01:59:09.351Z,47.34
2016-09-23T01:59:41.667Z,47.63
2016-09-23T02:00:13.989Z,47.44
2016-09-23T02:00:46.307Z,47.34
2016-09-23T02:01:18.620Z,47.34
2016-09-23T02:01:50.951Z,47.44
2016-09-23T02:02:23.268Z,47.44
2016-09-23T02:02:55.603Z,47.63
2016-09-23T02:03:27.918Z,47.53
2016-09-23T02:04:00.231Z,47.53
2016-09-23T02:04:32.574Z,47.53
2016-09-23T02:05:04.893Z,47.63
2016-09-23T02:05:37.197Z,47.53
2016-09-23T02:06:09.517Z,47.53
2016-09-23T02:06:41.846Z,47.63
2016-09-23T02:07:14.170Z,47.53
2016-09-23T02:07:46.501Z,47.53
2016-09-23T02:08:18.831Z,47.44
2016-09-23T02:08:51.158Z,47.53
2016-09-23T02:09:23.481Z,47.34
2016-09-23T02:09:55.802Z,47.63
2016-09-23T02:10:28.120Z,47.63
2016-09-23T02:11:00.428Z,47.44
2016-09-23T02:11:32.736Z,47.72
2016-09-23T02:12:05.073Z,47.44
2016-09-23T02:12:37.419Z,47.63
2016-09-23T02:13:09.711Z,47.63
2016-09-23T02:13:42.044Z,47.63
2016-09-23T02:14:14.424Z,47.53
2016-09-23T02:14:46.739Z,47.72
2016-09-23T02:15:19.075Z,47.63
2016-09-23T02:15:51.403Z,47.61
2016-09-23T02:16:23.709Z,47.53
2016-09-23T02:16:56.046Z,47.53
2016-09-23T02:17:28.380Z,47.7
2016-09-23T02:18:00.695Z,47.72
2016-09-23T02:18:33.025Z,47.63
2016-09-23T02:19:05.353Z,47.72
2016-09-23T02:19:37.664Z,47.63
2016-09-23T02:20:09.978Z,47.53
2016-09-23T02:20:42.301Z,47.63
2016-09-23T02:21:14.635Z,47.53
2016-09-23T02:21:46.978Z,47.72
2016-09-23T02:22:19.313Z,47.63
2016-09-23T02:22:51.651Z,47.53
2016-09-23T02:23:23.958Z,47.63
2016-09-23T02:23:56.276Z,47.63
2016-09-23T02:24:28.603Z,47.53
2016-09-23T02:25:00.951Z,47.63
2016-09-23T02:25:33.284Z,47.63
2016-09-23T02:26:05.601Z,47.63
2016-09-23T02:26:37.920Z,47.72
2016-09-23T02:27:10.248Z,47.53
2016-09-23T02:27:42.571Z,47.61
2016-09-23T02:28:14.906Z,47.63
2016-09-23T02:28:47.239Z,47.53
2016-09-23T02:29:19.559Z,47.63
2016-09-23T02:29:51.874Z,47.72
2016-09-23T02:30:24.203Z,47.72
2016-09-23T02:30:56.509Z,47.53
2016-09-23T02:31:28.841Z,47.53
2016-09-23T02:32:01.168Z,47.72
2016-09-23T02:32:33.490Z,47.72
2016-09-23T02:33:05.812Z,47.72
2016-09-23T02:33:38.141Z,47.53
2016-09-23T02:34:10.483Z,47.61
2016-09-23T02:34:42.808Z,47.63
2016-09-23T02:35:15.130Z,47.51
2016-09-23T02:35:47.448Z,47.7
2016-09-23T02:36:19.764Z,47.61
2016-09-23T02:36:52.092Z,47.8
2016-09-23T02:37:24.424Z,47.7
2016-09-23T02:37:56.748Z,47.8
2016-09-23T02:38:29.065Z,47.7
2016-09-23T02:39:01.391Z,47.61
2016-09-23T02:39:33.724Z,47.7
2016-09-23T02:40:06.058Z,47.8
2016-09-23T02:40:38.384Z,47.8
2016-09-23T02:41:10.706Z,47.61
2016-09-23T02:41:43.032Z,47.7
2016-09-23T02:42:15.358Z,47.61
2016-09-23T02:42:47.664Z,47.8
2016-09-23T02:43:19.990Z,47.7
2016-09-23T02:43:52.299Z,47.8
2016-09-23T02:44:24.640Z,47.89
2016-09-23T02:44:56.988Z,47.7
2016-09-23T02:45:29.308Z,47.7
2016-09-23T02:46:01.648Z,47.7
2016-09-23T02:46:33.970Z,47.7
2016-09-23T02:47:06.281Z,47.72
2016-09-23T02:47:38.614Z,47.7
2016-09-23T02:48:10.948Z,47.7
2016-09-23T02:48:43.283Z,47.8
2016-09-23T02:49:15.614Z,47.7
2016-09-23T02:49:47.953Z,47.7
2016-09-23T02:50:20.288Z,47.7
2016-09-23T02:50:52.620Z,47.61
2016-09-23T02:51:24.936Z,47.7
2016-09-23T02:51:57.325Z,47.7
2016-09-23T02:52:29.648Z,47.8
2016-09-23T02:53:01.968Z,47.7
2016-09-23T02:53:34.293Z,47.8
2016-09-23T02:54:06.664Z,47.89
2016-09-23T02:54:38.961Z,47.61
2016-09-23T02:55:11.280Z,47.7
2016-09-23T02:55:43.597Z,47.7
2016-09-23T02:56:15.931Z,47.61
2016-09-23T02:56:48.277Z,47.8
2016-09-23T02:57:20.603Z,47.7
2016-09-23T02:57:52.912Z,47.7
2016-09-23T02:58:25.246Z,47.7
2016-09-23T02:58:57.598Z,47.7
2016-09-23T02:59:29.938Z,47.7
2016-09-23T03:00:02.275Z,47.8
2016-09-23T03:00:34.625Z,47.7
2016-09-23T03:01:06.981Z,47.8
2016-09-23T03:01:39.305Z,47.7
2016-09-23T03:02:11.634Z,47.61
2016-09-23T03:02:43.974Z,47.8
2016-09-23T03:03:16.326Z,47.7
2016-09-23T03:03:48.644Z,47.7
2016-09-23T03:04:20.963Z,47.7
2016-09-23T03:04:53.266Z,47.8
2016-09-23T03:05:25.583Z,47.8
2016-09-23T03:05:57.910Z,47.7
2016-09-23T03:06:30.247Z,47.61
2016-09-23T03:07:02.580Z,47.7
2016-09-23T03:07:34.913Z,47.8
2016-09-23T03:08:07.232Z,47.61
2016-09-23T03:08:39.548Z,47.89
2016-09-23T03:09:11.866Z,47.89
2016-09-23T03:09:44.191Z,47.89
2016-09-23T03:10:16.509Z,47.61
2016-09-23T03:10:48.828Z,47.89
2016-09-23T03:11:21.143Z,47.89
2016-09-23T03:11:53.505Z,47.89
2016-09-23T03:12:25.852Z,47.8
2016-09-23T03:12:58.180Z,47.8
2016-09-23T03:13:30.501Z,47.89
2016-09-23T03:14:02.831Z,47.7
2016-09-23T03:14:35.158Z,47.89
2016-09-23T03:15:07.485Z,47.99
2016-09-23T03:15:39.820Z,47.8
2016-09-23T03:16:12.147Z,47.89
2016-09-23T03:16:44.468Z,47.89
2016-09-23T03:17:16.796Z,47.89
2016-09-23T03:17:49.113Z,47.7
2016-09-23T03:18:21.466Z,47.8
2016-09-23T03:18:53.780Z,47.89
2016-09-23T03:19:26.108Z,47.8
2016-09-23T03:19:58.422Z,47.8
2016-09-23T03:20:30.733Z,47.8
2016-09-23T03:21:03.041Z,47.89
2016-09-23T03:21:35.371Z,47.8
2016-09-23T03:22:07.696Z,47.89
2016-09-23T03:22:40.032Z,47.7
2016-09-23T03:23:12.359Z,47.89
2016-09-23T03:23:44.674Z,47.99
2016-09-23T03:24:17.001Z,47.8
2016-09-23T03:24:49.318Z,47.99
2016-09-23T03:25:21.641Z,47.89
2016-09-23T03:25:53.978Z,47.8
2016-09-23T03:26:26.307Z,47.99
2016-09-23T03:26:58.631Z,47.89
2016-09-23T03:27:30.956Z,47.99
2016-09-23T03:28:03.268Z,47.89
2016-09-23T03:28:35.566Z,47.89
2016-09-23T03:29:07.930Z,47.89
2016-09-23T03:29:40.284Z,47.89
2016-09-23T03:30:12.602Z,47.8
2016-09-23T03:30:44.906Z,47.99
2016-09-23T03:31:17.238Z,47.89
2016-09-23T03:31:49.562Z,47.99
2016-09-23T03:32:21.904Z,48.08
2016-09-23T03:32:54.232Z,47.99
2016-09-23T03:33:26.559Z,47.89
2016-09-23T03:33:58.887Z,47.99
2016-09-23T03:34:31.203Z,47.99
2016-09-23T03:35:03.519Z,47.99
2016-09-23T03:35:35.843Z,48.18
2016-09-23T03:36:08.175Z,48.08
2016-09-23T03:36:40.483Z,48.18
2016-09-23T03:37:12.799Z,47.89
2016-09-23T03:37:45.146Z,48.18
2016-09-23T03:38:17.483Z,48.08
2016-09-23T03:38:49.809Z,47.99
2016-09-23T03:39:22.137Z,48.08
2016-09-23T03:39:54.450Z,47.99
2016-09-23T03:40:26.774Z,48.08
2016-09-23T03:40:59.100Z,47.99
2016-09-23T03:41:31.433Z,48.08
2016-09-23T03:42:03.768Z,48.18
2016-09-23T03:42:36.083Z,48.08
2016-09-23T03:43:08.402Z,48.08
2016-09-23T03:43:40.736Z,48.08
2016-09-23T03:44:13.061Z,47.99
2016-09-23T03:44:45.386Z,48.08
2016-09-23T03:45:17.717Z,48.08
2016-09-23T03:45:50.036Z,48.08
2016-09-23T03:46:22.359Z,48.08
2016-09-23T03:46:54.685Z,48.08
2016-09-23T03:47:27.011Z,48.08
2016-09-23T03:47:59.331Z,48.08
2016-09-23T03:48:31.654Z,47.89
2016-09-23T03:49:03.974Z,48.08
2016-09-23T03:49:36.301Z,47.99
2016-09-23T03:50:08.636Z,47.97
2016-09-23T03:50:40.968Z,48.08
2016-09-23T03:51:13.297Z,47.99
2016-09-23T03:51:45.638Z,47.99
2016-09-23T03:52:17.975Z,47.99
2016-09-23T03:52:50.311Z,47.99
2016-09-23T03:53:22.654Z,48.18
2016-09-23T03:53:54.977Z,47.87
2016-09-23T03:54:27.311Z,47.99
2016-09-23T03:54:59.639Z,47.89
2016-09-23T03:55:31.962Z,47.99
2016-09-23T03:56:04.291Z,47.99
2016-09-23T03:56:36.616Z,47.89
2016-09-23T03:57:08.947Z,47.99
2016-09-23T03:57:41.257Z,47.99
2016-09-23T03:58:13.572Z,47.97
2016-09-23T03:58:45.893Z,47.89
2016-09-23T03:59:18.258Z,47.97
2016-09-23T03:59:50.584Z,47.97
2016-09-23T04:00:22.912Z,47.97
2016-09-23T04:00:55.247Z,48.07
2016-09-23T04:01:27.566Z,47.97
2016-09-23T04:01:59.894Z,47.99
2016-09-23T04:02:32.219Z,47.99
2016-09-23T04:03:04.548Z,48.07
2016-09-23T04:03:36.850Z,47.87
2016-09-23T04:04:09.178Z,47.99
2016-09-23T04:04:41.494Z,48.07
2016-09-23T04:05:13.811Z,48.08
2016-09-23T04:05:46.147Z,48.07
2016-09-23T04:06:18.468Z,47.97
2016-09-23T04:06:50.798Z,48.07
2016-09-23T04:07:23.113Z,48.07
2016-09-23T04:07:55.425Z,48.07
2016-09-23T04:08:27.733Z,48.16
2016-09-23T04:09:00.060Z,48.08
2016-09-23T04:09:32.391Z,48.08
2016-09-23T04:10:04.717Z,47.97
2016-09-23T04:10:37.048Z,48.16
2016-09-23T04:11:09.376Z,47.97
2016-09-23T04:11:41.687Z,48.16
2016-09-23T04:12:14.048Z,48.07
2016-09-23T04:12:46.376Z,48.07
2016-09-23T04:13:18.709Z,48.07
2016-09-23T04:13:51.067Z,47.97
2016-09-23T04:14:23.408Z,48.07
2016-09-23T04:14:55.759Z,48.07
2016-09-23T04:15:28.091Z,47.97
2016-09-23T04:16:00.419Z,48.07
2016-09-23T04:16:32.762Z,48.08
2016-09-23T04:17:05.404Z,48.07
2016-09-23T04:17:37.773Z,47.97
2016-09-23T04:18:10.099Z,48.08
2016-09-23T04:18:42.424Z,48.07
2016-09-23T04:19:14.747Z,48.07
2016-09-23T04:19:47.054Z,47.97
2016-09-23T04:20:19.424Z,47.97
2016-09-23T04:20:51.747Z,47.97
2016-09-23T04:21:24.065Z,48.07
2016-09-23T04:21:56.384Z,48.07
2016-09-23T04:22:28.734Z,48.07
2016-09-23T04:23:01.065Z,48.07
2016-09-23T04:23:33.383Z,48.07
2016-09-23T04:24:05.699Z,47.97
2016-09-23T04:24:38.029Z,47.97
2016-09-23T04:25:10.349Z,48.16
2016-09-23T04:25:42.691Z,48.16
2016-09-23T04:26:15.011Z,48.16
2016-09-23T04:26:47.326Z,48.16
2016-09-23T04:27:19.670Z,48.16
2016-09-23T04:27:51.989Z,48.16
2016-09-23T04:28:24.320Z,48.16
2016-09-23T04:28:56.644Z,48.16
2016-09-23T04:29:28.960Z,47.97
2016-09-23T04:30:01.299Z,48.16
2016-09-23T04:30:33.610Z,48.16
2016-09-23T04:31:05.942Z,48.16
2016-09-23T04:31:38.285Z,48.07
2016-09-23T04:32:10.618Z,48.07
2016-09-23T04:32:42.910Z,48.25
2016-09-23T04:33:15.219Z,48.16
2016-09-23T04:33:47.542Z,48.16
2016-09-23T04:34:19.863Z,48.16
2016-09-23T04:34:52.191Z,48.07
2016-09-23T04:35:24.505Z,48.16
2016-09-23T04:35:56.828Z,48.07
2016-09-23T04:36:29.162Z,48.07
2016-09-23T04:37:01.464Z,48.25
2016-09-23T04:37:33.803Z,47.87
2016-09-23T04:38:06.109Z,48.07
2016-09-23T04:38:38.429Z,48.16
2016-09-23T04:39:10.758Z,48.07
2016-09-23T04:39:43.067Z,48.07
2016-09-23T04:40:15.397Z,48.16
2016-09-23T04:40:47.731Z,48.07
2016-09-23T04:41:20.071Z,48.16
2016-09-23T04:41:52.406Z,48.25
2016-09-23T04:42:24.726Z,48.25
2016-09-23T04:42:57.058Z,48.25
2016-09-23T04:43:29.401Z,48.25
2016-09-23T04:44:01.722Z,48.25
2016-09-23T04:44:34.037Z,48.16
2016-09-23T04:45:06.367Z,48.25
2016-09-23T04:45:38.674Z,48.25
2016-09-23T04:46:11.003Z,48.25
2016-09-23T04:46:43.323Z,48.16
2016-09-23T04:47:15.653Z,48.16
2016-09-23T04:47:47.974Z,48.25
2016-09-23T04:48:20.304Z,48.25
2016-09-23T04:48:52.618Z,48.25
2016-09-23T04:49:24.962Z,48.16
2016-09-23T04:49:57.279Z,48.16
2016-09-23T04:50:29.610Z,48.25
2016-09-23T04:51:01.948Z,48.16
2016-09-23T04:51:34.291Z,48.16
2016-09-23T04:52:06.633Z,48.25
2016-09-23T04:52:38.944Z,48.25
2016-09-23T04:53:11.279Z,48.16
2016-09-23T04:53:43.589Z,48.25
2016-09-23T04:54:15.922Z,48.16
2016-09-23T04:54:48.255Z,48.25
2016-09-23T04:55:20.564Z,48.16
2016-09-23T04:55:52.875Z,48.16
2016-09-23T04:56:25.204Z,48.35
2016-09-23T04:56:57.547Z,48.07
2016-09-23T04:57:29.868Z,48.16
2016-09-23T04:58:02.187Z,48.16
2016-09-23T04:58:34.510Z,48.16
2016-09-23T04:59:06.825Z,48.16
2016-09-23T04:59:39.145Z,48.16
2016-09-23T05:00:11.477Z,48.07
2016-09-23T05:00:43.799Z,48.16
2016-09-23T05:01:16.116Z,48.25
2016-09-23T05:01:48.445Z,48.25
2016-09-23T05:02:20.798Z,48.16
2016-09-23T05:02:53.128Z,48.07
2016-09-23T05:03:25.456Z,48.35
2016-09-23T05:03:57.821Z,48.25
2016-09-23T05:04:30.136Z,48.07
2016-09-23T05:05:02.481Z,48.16
2016-09-23T05:05:35.383Z,48.16
2016-09-23T05:06:07.710Z,48.35
2016-09-23T05:06:40.017Z,48.25
2016-09-23T05:07:12.343Z,48.35
2016-09-23T05:07:44.675Z,48.35
2016-09-23T05:08:16.991Z,48.07
2016-09-23T05:08:49.324Z,48.16
2016-09-23T05:09:21.661Z,48.25
2016-09-23T05:09:53.977Z,48.07
2016-09-23T05:10:26.308Z,48.35
2016-09-23T05:10:59.418Z,48.25
2016-09-23T05:11:31.761Z,48.07
2016-09-23T05:12:04.084Z,48.16
2016-09-23T05:12:36.409Z,48.07
2016-09-23T05:13:08.762Z,48.25
2016-09-23T05:13:41.091Z,48.16
2016-09-23T05:14:13.429Z,48.25
2016-09-23T05:14:45.770Z,48.35
2016-09-23T05:15:18.102Z,48.16
2016-09-23T05:15:50.435Z,48.07
2016-09-23T05:16:22.766Z,48.35
2016-09-23T05:16:55.088Z,48.07
2016-09-23T05:17:27.402Z,48.16
2016-09-23T05:17:59.724Z,48.07
2016-09-23T05:18:32.046Z,48.16
2016-09-23T05:19:04.359Z,48.16
2016-09-23T05:19:37.174Z,48.16
2016-09-23T05:20:10.271Z,48.25
2016-09-23T05:20:42.591Z,48.07
2016-09-23T05:21:14.910Z,48.25
2016-09-23T05:21:47.218Z,48.07
2016-09-23T05:22:19.553Z,48.25
2016-09-23T05:22:52.072Z,48.35
2016-09-23T05:23:24.945Z,48.16
2016-09-23T05:23:57.761Z,48.35
2016-09-23T05:24:30.509Z,48.16
2016-09-23T05:25:02.831Z,48.16
2016-09-23T05:25:35.160Z,48.16
2016-09-23T05:26:07.586Z,48.07
2016-09-23T05:26:39.916Z,48.25
2016-09-23T05:27:12.237Z,48.54
2016-09-23T05:27:44.757Z,48.35
2016-09-23T05:28:17.079Z,48.25
2016-09-23T05:28:49.409Z,48.45
2016-09-23T05:29:21.740Z,48.07
2016-09-23T05:29:57.241Z,48.45
2016-09-23T05:30:29.558Z,48.54
2016-09-23T05:31:01.880Z,48.45
2016-09-23T05:31:34.418Z,48.07
2016-09-23T05:32:06.792Z,48.45
2016-09-23T05:32:39.127Z,48.16
2016-09-23T05:33:11.449Z,48.25
2016-09-23T05:33:43.795Z,48.54
2016-09-23T05:34:16.114Z,48.45
2016-09-23T05:34:48.412Z,48.16
2016-09-23T05:35:20.724Z,48.54
2016-09-23T05:35:53.041Z,48.25
2016-09-23T05:36:25.662Z,48.16
2016-09-23T05:36:58.666Z,48.45
2016-09-23T05:37:31.001Z,48.25
2016-09-23T05:38:03.312Z,48.16
2016-09-23T05:38:35.669Z,48.16
2016-09-23T05:39:08.700Z,48.45
2016-09-23T05:39:41.009Z,48.16
2016-09-23T05:40:13.327Z,48.54
2016-09-23T05:40:45.637Z,48.25
2016-09-23T05:41:17.960Z,48.54
2016-09-23T05:41:50.287Z,48.45
2016-09-23T05:42:22.622Z,48.16
2016-09-23T05:42:54.950Z,48.45
2016-09-23T05:43:28.362Z,48.16
2016-09-23T05:44:00.867Z,48.54
2016-09-23T05:44:33.222Z,48.45
2016-09-23T05:45:05.649Z,48.16
2016-09-23T05:45:38.231Z,48.45
2016-09-23T05:46:11.106Z,48.35
2016-09-23T05:46:44.416Z,48.45
2016-09-23T05:47:17.022Z,48.45
2016-09-23T05:47:49.623Z,48.35
2016-09-23T05:48:22.972Z,48.35
2016-09-23T05:48:55.752Z,48.45
2016-09-23T05:49:30.406Z,48.16
2016-09-23T05:50:03.549Z,48.45
2016-09-23T05:50:37.060Z,48.35
2016-09-23T05:51:10.650Z,48.45
2016-09-23T05:51:44.276Z,48.45
2016-09-23T05:52:17.205Z,48.35
2016-09-23T05:52:50.071Z,48.45
2016-09-23T05:53:22.850Z,48.45
2016-09-23T05:53:55.716Z,48.25
2016-09-23T05:54:28.046Z,48.45
2016-09-23T05:55:00.370Z,48.35
2016-09-23T05:55:32.707Z,48.35
2016-09-23T05:56:05.037Z,48.45
2016-09-23T05:56:38.800Z,48.54
2016-09-23T05:57:11.111Z,48.45
2016-09-23T05:57:43.419Z,48.45
2016-09-23T05:58:16.807Z,48.35
2016-09-23T05:58:49.256Z,48.35
2016-09-23T05:59:21.587Z,48.54
2016-09-23T05:59:54.883Z,48.35
2016-09-23T06:00:27.238Z,48.45
2016-09-23T06:00:59.557Z,48.54
2016-09-23T06:01:31.974Z,48.35
2016-09-23T06:02:04.365Z,48.35
2016-09-23T06:02:37.189Z,48.54
2016-09-23T06:03:09.534Z,48.45
2016-09-23T06:03:41.870Z,48.35
2016-09-23T06:04:14.177Z,48.45
2016-09-23T06:04:46.501Z,48.35
2016-09-23T06:05:18.880Z,48.35
2016-09-23T06:05:52.252Z,48.35
2016-09-23T06:06:24.618Z,48.45
2016-09-23T06:06:56.943Z,48.54
2016-09-23T06:07:33.309Z,48.45
2016-09-23T06:08:05.634Z,48.35
2016-09-23T06:08:37.958Z,48.54
2016-09-23T06:09:11.248Z,48.45
2016-09-23T06:09:44.320Z,48.54
2016-09-23T06:10:18.881Z,48.64
2016-09-23T06:10:54.785Z,48.35
2016-09-23T06:11:34.315Z,48.45
2016-09-23T06:12:09.463Z,48.35
2016-09-23T06:12:47.013Z,48.45
2016-09-23T06:13:24.825Z,48.45
2016-09-23T06:14:04.823Z,48.35
2016-09-23T06:14:40.187Z,48.25
2016-09-23T06:15:16.406Z,48.54
2016-09-23T06:15:54.737Z,48.35
2016-09-23T06:16:33.374Z,48.35
2016-09-23T06:17:12.934Z,48.35
2016-09-23T06:17:47.866Z,48.35
2016-09-23T06:18:21.330Z,48.35
2016-09-23T06:18:55.551Z,48.45
2016-09-23T06:19:33.467Z,48.54
2016-09-23T06:20:11.908Z,48.35
2016-09-23T06:20:45.768Z,48.54
2016-09-23T06:21:20.818Z,48.54
2016-09-23T06:21:56.456Z,48.45
2016-09-23T06:22:29.840Z,48.54
2016-09-23T06:23:03.458Z,48.45
2016-09-23T06:23:38.831Z,48.54
2016-09-23T06:24:15.301Z,48.35
2016-09-23T06:24:49.819Z,48.35
2016-09-23T06:25:27.325Z,48.35
2016-09-23T06:26:06.913Z,48.45
2016-09-23T06:26:43.319Z,48.35
2016-09-23T06:27:23.837Z,48.35
2016-09-23T06:28:02.315Z,48.35
2016-09-23T06:28:39.316Z,48.38
2016-09-23T06:29:13.849Z,48.38
2016-09-23T06:29:50.326Z,48.35
2016-09-23T06:30:24.290Z,48.54
2016-09-23T06:31:01.323Z,48.35
2016-09-23T06:31:38.815Z,48.45
2016-09-23T06:32:14.344Z,48.38
2016-09-23T06:32:50.858Z,48.38
2016-09-23T06:33:26.377Z,48.47
2016-09-23T06:33:59.281Z,48.57
2016-09-23T06:34:35.407Z,48.18
2016-09-23T06:35:11.862Z,48.18
2016-09-23T06:35:45.460Z,48.47
2016-09-23T06:36:22.318Z,48.38
2016-09-23T06:37:01.832Z,48.47
2016-09-23T06:37:46.552Z,48.18
2016-09-23T06:38:24.315Z,48.18
2016-09-23T06:39:01.418Z,48.57
2016-09-23T06:39:50.841Z,48.18
2016-09-23T06:42:30.840Z,48.28
2016-09-23T06:43:10.340Z,48.38
2016-09-23T06:43:51.837Z,48.28
2016-09-23T06:44:30.872Z,48.18
2016-09-23T06:45:11.341Z,48.18
2016-09-23T06:45:46.397Z,48.28
2016-09-23T06:46:23.292Z,48.18
2016-09-23T06:46:56.825Z,48.18
2016-09-23T06:47:30.841Z,48.28
2016-09-23T06:48:04.247Z,48.38
2016-09-23T06:48:36.829Z,48.28
2016-09-23T06:49:09.411Z,48.28
2016-09-23T06:49:42.898Z,48.28
2016-09-23T06:50:19.389Z,48.18
2016-09-23T06:50:53.762Z,48.28
2016-09-23T06:51:27.257Z,48.08
2016-09-23T06:52:01.838Z,48.28
2016-09-23T06:52:40.841Z,48.11
2016-09-23T06:53:18.404Z,48.08
2016-09-23T06:53:51.825Z,48.3
2016-09-23T06:54:30.856Z,48.3
2016-09-23T06:55:08.901Z,48.11
2016-09-23T06:55:44.842Z,48.11
2016-09-23T06:56:27.333Z,48.4
2016-09-23T06:57:03.799Z,48.38
2016-09-23T06:57:40.352Z,48.21
2016-09-23T06:58:16.469Z,48.11
2016-09-23T06:58:55.337Z,48.3
2016-09-23T06:59:31.329Z,48.21
2016-09-23T07:00:09.943Z,48.21
2016-09-23T07:00:46.872Z,48.3
2016-09-23T07:01:26.344Z,48.21
2016-09-23T07:02:05.359Z,48.4
2016-09-23T07:02:45.331Z,48.3
2016-09-23T07:03:27.843Z,48.3
2016-09-23T07:04:05.837Z,48.21
2016-09-23T07:04:47.830Z,48.4
2016-09-23T07:05:25.010Z,48.4
2016-09-23T07:06:03.605Z,48.21
2016-09-23T07:06:41.853Z,48.21
2016-09-23T07:07:35.365Z,48.4